• Join FlightAware (Why Join?)
  • Login
  • US Flag 
03:39AM EDT


 

Airport Tracker/Info


-or-


 

Live Flight TrackerFlight Track Log ✈ N84501 ✈ 11-Aug-2014 ✈ LGEE - P52

Flight Track Log - Related Links

Times and Time Zones

All times are in EDT time to prevent confusion due to time zone crossing. See the N84501 flight status page for this flight to view local times or setup timezone preferences in your user account.

Time Position Orientation Groundspeed Altitude Reporting Facility
EDT Latitude Longitude Course Direction KTS MPH feet Rate Location/Type
02:04PM 33.8333 -118.1667 120° Southeast 100 115 800  Level Southern California TRACON
02:05PM 33.8500 -118.1833 320° Northwest 115 132 1,500 660 Climbing Southern California TRACON
02:06PM 33.8667 -118.1500 59° Northeast 115 132 2,100 360 Climbing Southern California TRACON
02:07PM 33.8667 -118.1167 90° East 121 139 2,300 180 Climbing Southern California TRACON
02:08PM 33.8667 -118.0667 90° East 118 136 2,500 240 Climbing Southern California TRACON
02:09PM 33.8833 -118.0333 59° Northeast 113 130 2,900 360 Climbing Southern California TRACON
02:10PM -19.9263 -160.1377 120° Southeast  Level Estimated
02:10PM 33.8500 -118.0167 157° South 104 120 3,300  Level Southern California TRACON
02:11PM 33.8333 -118.0000 140° Southeast 106 122 3,800 420 Climbing Southern California TRACON
02:12PM 33.8500 -117.9500 68° East 114 131 4,200 420 Climbing Southern California TRACON
02:13PM 33.8667 -117.9167 59° Northeast 108 124 4,700 420 Climbing Southern California TRACON
02:14PM 33.8667 -117.8833 90° East 107 123 5,100 360 Climbing Southern California TRACON
02:15PM 33.8667 -117.8500 90° East 110 127 5,500 360 Climbing Southern California TRACON
02:16PM 33.8667 -117.8167 90° East 107 123 5,900 360 Climbing Southern California TRACON
02:17PM 33.8833 -117.7833 59° Northeast 106 122 6,300 360 Climbing Southern California TRACON
02:18PM 33.8833 -117.7500 90° East 108 124 6,700 420 Climbing Southern California TRACON
02:19PM 33.8833 -117.7167 90° East 108 124 7,200 480 Climbing Southern California TRACON
02:20PM 33.9000 -117.6667 68° East 110 127 7,700 420 Climbing Southern California TRACON
02:21PM 33.9000 -117.6333 90° East 111 128 8,100 360 Climbing Southern California TRACON
02:22PM 33.9000 -117.6000 90° East 110 127 8,500 420 Climbing Southern California TRACON
02:23PM 33.9167 -117.5667 59° Northeast 111 128 8,900 360 Climbing Southern California TRACON
02:24PM 33.9167 -117.5333 90° East 114 131 9,300 360 Climbing Southern California TRACON
02:25PM 33.9333 -117.5000 59° Northeast 109 125 9,700 360 Climbing Southern California TRACON
02:26PM 33.9333 -117.4667 90° East 109 125 10,000 360 Climbing Southern California TRACON
02:27PM 33.9333 -117.4333 90° East 110 127 10,400 300 Climbing Southern California TRACON
02:28PM 33.9500 -117.3833 68° East 113 130 10,700 300 Climbing Southern California TRACON
02:29PM 33.9500 -117.3500 90° East 110 127 11,100 300 Climbing Southern California TRACON
02:30PM 33.9500 -117.3167 90° East 112 129 11,400 240 Climbing Southern California TRACON
02:31PM 33.9667 -117.2833 59° Northeast 116 133 11,600 60 Climbing Southern California TRACON
02:32PM 33.9667 -117.2500 90° East 116 133 11,600  Level Southern California TRACON
02:33PM 33.9667 -117.2000 90° East 117 135 11,700  Climbing Southern California TRACON
02:34PM 33.9667 -117.1667 90° East 120 138 11,700 -120 Level Southern California TRACON
02:35PM 33.9833 -117.1167 68° East 131 151 11,500 -180 Descending Southern California TRACON
02:36PM 33.9833 -117.0833 90° East 124 143 11,400 -120 Descending Southern California TRACON
02:37PM 33.9833 -117.0333 90° East 121 139 11,300 -120 Descending Southern California TRACON
02:38PM 33.9833 -117.0000 90° East 118 136 11,200 -60 Descending Southern California TRACON
02:39PM 33.9833 -116.9500 90° East 124 143 11,200 -120 Level Southern California TRACON
02:40PM 33.9833 -116.9167 90° East 121 139 11,000 -180 Descending Southern California TRACON
02:41PM 33.9833 -116.8667 90° East 122 140 10,900 -240 Descending Southern California TRACON
02:42PM 33.9833 -116.8333 90° East 128 147 10,600 -240 Descending Southern California TRACON
02:43PM 34.0000 -116.7833 68° East 137 158 10,500 -120 Descending Southern California TRACON
02:44PM 34.0000 -116.7500 90° East 130 150 10,400 -120 Descending Southern California TRACON
02:45PM 34.0075 -116.7231 71° East 134 154 10,400 -120 Level Los Angeles Center
02:46PM 34.0217 -116.6850 66° East 128 147 10,300  Descending Los Angeles Center
02:47PM 34.0375 -116.6533 59° Northeast 125 144 10,500 120 Climbing Los Angeles Center
02:48PM 34.0558 -116.6106 63° Northeast 126 145 10,600  Climbing Los Angeles Center
02:49PM 34.0728 -116.5731 61° Northeast 130 150 10,600  Level Los Angeles Center
02:50PM 34.0864 -116.5286 70° East 132 152 10,600 -240 Level Los Angeles Center
02:51PM 34.0992 -116.4792 73° East 131 151 10,200 -120 Descending Los Angeles Center
02:52PM 34.1108 -116.4481 66° East 130 150 10,400  Climbing Los Angeles Center
02:53PM 34.1244 -116.4036 70° East 130 150 10,300 -300 Descending Los Angeles Center
02:53PM 34.1233 -116.3953 99° East 131 151 10,100 -120 Descending Los Angeles Center
02:54PM 34.1303 -116.3639 75° East 125 144 10,200 60 Climbing Los Angeles Center
02:54PM 34.1300 -116.3519 92° East 128 147 10,200 120 Level Los Angeles Center
02:55PM 34.1333 -116.3194 83° East 116 133 10,400 120 Climbing Los Angeles Center
02:56PM 34.1350 -116.2806 87° East 116 133 10,500  Climbing Los Angeles Center
02:56PM 34.1350 -116.2728 90° East 118 136 10,400  Descending Los Angeles Center
02:57PM 34.1392 -116.2436 80° East 116 133 10,500  Climbing Los Angeles Center
02:57PM 34.1383 -116.2311 95° East 118 136 10,400 60 Descending Los Angeles Center
02:58PM 34.1419 -116.1994 82° East 118 136 10,600  Climbing Los Angeles Center
02:59PM 34.1461 -116.1625 82° East 119 137 10,500 -120 Descending Los Angeles Center
02:59PM 34.1456 -116.1506 93° East 118 136 10,500 60 Level Los Angeles Center
03:00PM 34.1478 -116.1236 84° East 119 137 10,600  Climbing Los Angeles Center
03:00PM 34.1478 -116.1097 90° East 118 136 10,500  Descending Los Angeles Center
03:01PM 34.1492 -116.0822 87° East 118 136 10,600  Climbing Los Angeles Center
03:01PM 34.1497 -116.0711 87° East 118 136 10,500  Descending Los Angeles Center
03:03PM 34.1522 -116.0297 86° East 118 136 10,600  Climbing Los Angeles Center
03:04PM 34.1569 -115.9889 82° East 117 135 10,600  Level Los Angeles Center
03:05PM 34.1611 -115.9508 82° East 117 135 10,600  Level Los Angeles Center
03:06PM 34.1653 -115.9097 83° East 117 135 10,600 -60 Level Los Angeles Center
03:07PM 34.1756 -115.8692 73° East 119 137 10,500 -60 Descending Los Angeles Center
03:08PM 34.1842 -115.8264 76° East 120 138 10,500  Level Los Angeles Center
03:09PM 34.1931 -115.7892 74° East 120 138 10,500  Level Los Angeles Center
03:10PM 34.2017 -115.7483 76° East 118 136 10,500  Level Los Angeles Center
03:11PM 34.2128 -115.7094 71° East 118 136 10,500  Level Los Angeles Center
03:12PM 34.2225 -115.6711 73° East 118 136 10,600  Climbing Los Angeles Center
03:13PM 34.2303 -115.6300 77° East 118 136 10,600  Level Los Angeles Center
03:14PM 34.2364 -115.5883 80° East 118 136 10,600  Level Los Angeles Center
03:15PM 34.2428 -115.5503 79° East 118 136 10,600 -120 Level Los Angeles Center
03:16PM 34.2497 -115.5089 79° East 118 136 10,400 -60 Descending Los Angeles Center
03:17PM 34.2564 -115.4686 79° East 118 136 10,500  Climbing Los Angeles Center
03:18PM 34.2622 -115.4303 80° East 118 136 10,500  Level Los Angeles Center
03:19PM 34.2697 -115.3894 77° East 118 136 10,600 60 Climbing Los Angeles Center
03:20PM 34.2742 -115.3469 83° East 118 136 10,700  Climbing Los Angeles Center
03:21PM 34.2825 -115.3072 76° East 121 139 10,600 -60 Descending Los Angeles Center
03:22PM 34.2906 -115.2636 77° East 122 140 10,600 60 Level Los Angeles Center
03:23PM 34.2978 -115.2197 79° East 123 142 10,800 60 Climbing Los Angeles Center
03:24PM 34.3047 -115.1800 78° East 123 142 10,800  Level Los Angeles Center
03:25PM 34.3058 -115.1375 88° East 121 139 10,800  Level Los Angeles Center
03:26PM 34.3150 -115.0953 75° East 121 139 10,900 60 Climbing Los Angeles Center
03:27PM 34.3206 -115.0556 80° East 121 139 11,000  Climbing Los Angeles Center
03:28PM 34.3275 -115.0133 79° East 121 139 11,000  Level Los Angeles Center
03:29PM 34.3333 -114.9708 81° East 121 139 11,100  Climbing Los Angeles Center
03:31PM 34.3389 -114.9325 80° East 121 139 11,100 -60 Level Los Angeles Center
03:32PM 34.3500 -114.8911 72° East 121 139 11,000 -60 Descending Los Angeles Center
03:33PM 34.3542 -114.8494 83° East 120 138 11,000  Level Los Angeles Center
03:34PM 34.3589 -114.8072 82° East 120 138 11,000  Level Los Angeles Center
03:35PM 34.3633 -114.7672 82° East 120 138 11,000  Level Los Angeles Center
03:36PM 34.3661 -114.7250 85° East 121 139 11,000  Level Los Angeles Center
03:37PM 34.3739 -114.6836 77° East 123 142 11,100  Climbing Los Angeles Center
03:38PM 34.3856 -114.6433 71° East 125 144 11,000 -180 Descending Los Angeles Center
03:39PM 34.3969 -114.5994 73° East 132 152 10,800 -180 Descending Los Angeles Center
03:40PM 34.4097 -114.5486 73° East 132 152 10,700 -120 Descending Los Angeles Center
03:41PM 34.4178 -114.5058 77° East 132 152 10,600 -120 Descending Los Angeles Center
03:42PM 34.4242 -114.4633 80° East 132 152 10,500 -60 Descending Los Angeles Center
03:43PM 34.4258 -114.4244 87° East 132 152 10,500  Level Los Angeles Center
03:44PM 34.4303 -114.3833 83° East 127 146 10,500  Level Los Angeles Center
03:45PM 34.4372 -114.3444 78° East 125 144 10,600 60 Climbing Los Angeles Center
03:46PM 34.4422 -114.2997 82° East 121 139 10,700 120 Climbing Los Angeles Center
03:47PM 34.4444 -114.2622 86° East 119 137 10,900 60 Climbing Los Angeles Center
03:48PM 34.4528 -114.2231 76° East 118 136 10,900 -60 Level Los Angeles Center
03:49PM 34.4597 -114.1839 78° East 118 136 10,800  Descending Los Angeles Center
03:50PM 34.4625 -114.1422 85° East 121 139 10,900 120 Climbing Los Angeles Center
03:51PM 34.4683 -114.1061 79° East 118 136 11,100 60 Climbing Albuquerque Center
03:52PM 34.4772 -114.0672 74° East 118 136 11,100 -180 Level Albuquerque Center
03:53PM 34.4847 -114.0258 78° East 121 139 10,800 -240 Descending Albuquerque Center
03:54PM 34.4889 -113.9847 83° East 122 140 10,700 -180 Descending Albuquerque Center
03:55PM 34.4942 -113.9319 83° East 125 144 10,500 -240 Descending Albuquerque Center
03:56PM 34.4981 -113.8872 84° East 129 148 10,300 -300 Descending Albuquerque Center
03:57PM 34.5011 -113.8439 85° East 130 150 10,000 -240 Descending Albuquerque Center
03:58PM 34.5025 -113.8008 88° East 130 150 9,900 -60 Descending Albuquerque Center
03:59PM 34.5053 -113.7606 85° East 130 150 9,900  Level Albuquerque Center
04:00PM 34.5094 -113.7214 83° East 125 144 9,900  Level Albuquerque Center
04:01PM 34.5128 -113.6814 84° East 124 143 9,900  Level Albuquerque Center
04:02PM 34.5147 -113.6447 86° East 122 140 9,900  Level Albuquerque Center
04:03PM 34.5228 -113.5975 78° East 122 140 10,000  Climbing Albuquerque Center
04:04PM 34.5256 -113.5572 85° East 122 140 9,900 -120 Descending Albuquerque Center
04:06PM 34.5253 -113.5178 90° East 121 139 9,800  Descending Albuquerque Center
04:07PM 34.5236 -113.4769 93° East 121 139 9,900  Climbing Albuquerque Center
04:08PM 34.5200 -113.4347 96° East 121 139 9,800 -120 Descending Albuquerque Center
04:09PM 34.5150 -113.3925 98° East 121 139 9,700 -120 Descending Albuquerque Center
04:10PM 34.5108 -113.3419 96° East 122 140 9,600 -60 Descending Albuquerque Center
04:11PM 34.5028 -113.3022 104° East 122 140 9,600 -60 Level Albuquerque Center
04:12PM 34.5008 -113.2603 93° East 122 140 9,500 -120 Descending Albuquerque Center
04:13PM 34.5022 -113.2172 88° East 123 142 9,400  Descending Albuquerque Center
04:14PM 34.5000 -113.1756 94° East 123 142 9,600 60 Climbing Albuquerque Center
04:15PM 34.4922 -113.1361 103° East 123 142 9,600  Level Albuquerque Center
04:16PM 34.4892 -113.0967 95° East 123 142 9,600 60 Level Albuquerque Center
04:17PM 34.4883 -113.0478 91° East 123 142 9,800 60 Climbing Albuquerque Center
04:18PM 34.4864 -113.0061 93° East 123 142 9,800  Level Albuquerque Center
04:19PM 34.4825 -112.9642 96° East 123 142 9,800  Level Albuquerque Center
04:20PM 34.4828 -112.9225 90° East 123 142 9,800  Level Albuquerque Center
04:21PM 34.4867 -112.8806 84° East 123 142 9,800  Level Albuquerque Center
04:22PM 34.4875 -112.8375 89° East 123 142 9,900  Climbing Albuquerque Center
04:23PM 34.4928 -112.7861 83° East 124 143 9,800 -60 Descending Albuquerque Center
04:24PM 34.4967 -112.7444 84° East 124 143 9,800 60 Level Albuquerque Center
04:25PM 34.5042 -112.7036 77° East 124 143 10,000  Climbing Albuquerque Center
04:26PM 34.5106 -112.6617 80° East 124 143 9,800 -120 Descending Albuquerque Center
04:27PM 34.5219 -112.6231 70° East 124 143 9,800 -120 Level Albuquerque Center
04:28PM 34.5342 -112.5833 70° East 124 143 9,600 -180 Descending Albuquerque Center
04:29PM 34.5447 -112.5422 73° East 125 144 9,500 -120 Descending Albuquerque Center
04:30PM 34.5575 -112.4894 74° East 130 150 9,400 -120 Descending Albuquerque Center
04:31PM 34.5633 -112.4478 80° East 130 150 9,300 -60 Descending Albuquerque Center
04:32PM 34.5725 -112.4058 75° East 130 150 9,300 -120 Level Albuquerque Center
04:34PM 34.5942 -112.3167 74° East 130 150 9,000 -180 Descending Albuquerque Center
04:35PM 34.6025 -112.2742 77° East 130 150 8,900 -120 Descending Albuquerque Center
04:36PM 34.6103 -112.2314 78° East 130 150 8,800 -180 Descending Albuquerque Center
04:37PM 34.6208 -112.1894 73° East 130 150 8,600 -180 Descending Albuquerque Center
04:38PM 34.6314 -112.1481 73° East 130 150 8,500 -60 Descending Albuquerque Center
04:39PM 34.6428 -112.1092 70° East 130 150 8,500  Level Albuquerque Center